Fall River Mills, CA

7:07 AM PDT on September 30, 2014 (GMT -0700)
Redding Municipal | Change Station
CLOSE
Current Station
Airport
Location: Redding,
Elevation: 502 ft
Nearby Weather Stations

Elev 502 ft 40.51 °N, 122.30 °W | Updated 14 minutes ago

Partly Cloudy
Partly Cloudy
56 °F
Feels Like 56 °F
N
0
Wind Variable Wind from North

Today
High -- | Low -- °F
--% Chance of Precip.
Yesterday
High -- | Low -- °F
Precip. -- in
7:01 AM 6:49 PM
Waxing Crescent, 37% visible
Pressure 29.94 in
Visibility 10.0 miles
Clouds Clear
Dew Point 55 °F
Humidity 97%
Rainfall 0.00 in
Snow Depth 0 in , 1 in , 0 in
UV 0 out of 12
Pollen 5.80 out of 12
Air Quality Not available.
Flu Activity Not available.
METAR KRDD 301353Z 00000KT 10SM CLR 13/13 A2995 RMK AO2 SLP138 T01330128

More Conditions Fewer Conditions

Pressure 29.94 in
Visibility 10.0 miles
Clouds Clear
Dew Point 55 °F
Humidity 97%
Rainfall 0.00 in
Snow Depth 0 in , 1 in , 0 in
UV 0 out of 12
Pollen 5.80 out of 12
Air Quality Not available.
Flu Activity Not available.
METAR KRDD 301353Z 00000KT 10SM CLR 13/13 A2995 RMK AO2 SLP138 T01330128

More Conditions Fewer Conditions

10-Day Weather Forecast

Almanac

Astronomy

Sep. 30, 2014 Rise Set
Actual Time 7:01 AM PDT 6:49 PM PDT
Civil Twilight 6:34 AM PDT 7:16 PM PDT
Nautical Twilight 6:02 AM PDT 7:48 PM PDT
Astronomical Twilight 5:30 AM PDT 8:20 PM PDT
Moon 1:16 PM PDT 11:22 PM PDT
Length of Visible Light 12h 42m
Length of Day
11h 47m
Tomorrow will be 2m 43s shorter.
Waxing Crescent, 37% of the Moon is Illuminated
Today
Waxing Crescent
Oct 1
First Quarter
Oct 8
Full
Oct 15
Last Quarter
Oct 23
New

Today's Extremes

State Highs State Lows

Community

WunderPhotos

Upload Photos

1,757,643 photos uploaded!

Nearby

Snow Depth

Station Depth Elevation
Poison Flat 0 in 7900 ft
Echo Peak 1 in 7800 ft
Squaw Valley 0 in 8200 ft
Spratt Creek 0 in 6200 ft
Fallen Leaf 0 in 6300 ft

Earthquake Activity

City Distance Mag. Time & Date
No recent earthquake activity has been reported nearby.
Minimum magnitude displayed is 2.5.

Coastal Water Temperatures

Place Temperature
No Stations Reporting

Nearby Weather Stations